createdAt,value
2018-08-30T00:00:39.758Z,5.40
2018-08-30T00:03:07.190Z,5.47
2018-08-30T00:05:33.836Z,5.13
2018-08-30T00:08:01.283Z,4.93
2018-08-30T00:10:27.926Z,5.03
2018-08-30T00:12:54.595Z,5.23
2018-08-30T00:15:22.036Z,4.97
2018-08-30T00:17:48.700Z,5.67
2018-08-30T00:20:15.414Z,6.80
2018-08-30T00:22:42.208Z,10.10
2018-08-30T00:25:08.865Z,8.23
2018-08-30T00:27:35.510Z,7.90
2018-08-30T00:30:02.208Z,7.57
2018-08-30T00:32:28.846Z,6.53
2018-08-30T00:34:55.488Z,8.77
2018-08-30T00:37:22.145Z,6.27
2018-08-30T00:39:48.801Z,7.80
2018-08-30T00:42:15.710Z,7.87
2018-08-30T00:44:42.358Z,17.07
2018-08-30T00:47:09.067Z,9.77
2018-08-30T00:49:36.479Z,11.43
2018-08-30T00:52:03.139Z,9.77
2018-08-30T00:54:29.799Z,14.47
2018-08-30T00:56:57.193Z,13.00
2018-08-30T00:59:23.863Z,9.50
2018-08-30T01:01:50.676Z,11.63
2018-08-30T01:04:17.412Z,9.70
2018-08-30T01:06:44.812Z,16.37
2018-08-30T01:09:11.532Z,8.20
2018-08-30T01:11:38.235Z,11.53
2018-08-30T01:14:04.906Z,12.23
2018-08-30T01:16:31.628Z,8.50
2018-08-30T01:18:58.333Z,8.40
2018-08-30T01:21:25.828Z,7.67
2018-08-30T01:23:52.490Z,3.07
2018-08-30T01:26:19.149Z,3.63
2018-08-30T01:28:45.991Z,3.43
2018-08-30T01:31:12.635Z,4.73
2018-08-30T01:33:39.282Z,9.23
2018-08-30T01:36:06.727Z,10.23
2018-08-30T01:38:33.382Z,6.40
2018-08-30T01:41:00.792Z,7.43
2018-08-30T01:43:27.490Z,3.90
2018-08-30T01:45:54.893Z,3.30
2018-08-30T01:48:21.572Z,3.63
2018-08-30T01:50:48.225Z,4.50
2018-08-30T01:53:15.004Z,10.83
2018-08-30T01:55:41.671Z,3.43
2018-08-30T01:58:08.308Z,4.77
2018-08-30T02:00:34.996Z,5.17
2018-08-30T02:03:01.675Z,8.67
2018-08-30T02:05:28.343Z,4.33
2018-08-30T02:07:55.761Z,5.13
2018-08-30T02:10:23.180Z,10.53
2018-08-30T02:12:50.589Z,13.40
2018-08-30T02:15:17.246Z,5.30
2018-08-30T02:17:44.692Z,6.27
2018-08-30T02:20:12.104Z,11.63
2018-08-30T02:22:38.748Z,5.10
2018-08-30T02:25:05.462Z,3.70
2018-08-30T02:27:32.103Z,3.70
2018-08-30T02:29:58.808Z,3.17
2018-08-30T02:32:26.224Z,3.40
2018-08-30T02:34:52.861Z,3.03
2018-08-30T02:37:19.712Z,4.10
2018-08-30T02:39:47.160Z,7.47
2018-08-30T02:42:13.830Z,3.80
2018-08-30T02:44:40.486Z,5.87
2018-08-30T02:47:07.161Z,4.93
2018-08-30T02:49:33.826Z,4.87
2018-08-30T02:52:00.491Z,5.30
2018-08-30T02:54:27.161Z,4.47
2018-08-30T02:56:53.826Z,3.77
2018-08-30T02:59:20.501Z,7.63
2018-08-30T03:01:47.130Z,4.80
2018-08-30T03:04:13.788Z,4.53
2018-08-30T03:06:41.204Z,6.83
2018-08-30T03:09:08.015Z,3.90
2018-08-30T03:11:34.683Z,3.57
2018-08-30T03:14:01.354Z,3.83
2018-08-30T03:16:28.014Z,6.03
2018-08-30T03:18:55.463Z,3.77
2018-08-30T03:21:22.871Z,7.37
2018-08-30T03:23:49.582Z,4.10
2018-08-30T03:26:16.237Z,6.10
2018-08-30T03:28:42.880Z,4.23
2018-08-30T03:31:09.570Z,3.73
2018-08-30T03:33:37.009Z,2.60
2018-08-30T03:36:03.734Z,2.80
2018-08-30T03:38:30.420Z,2.93
2018-08-30T03:40:57.094Z,3.73
2018-08-30T03:43:23.745Z,3.60
2018-08-30T03:45:50.421Z,3.60
2018-08-30T03:48:17.089Z,3.83
2018-08-30T03:50:43.789Z,3.40
2018-08-30T03:53:10.420Z,7.47
2018-08-30T03:55:37.068Z,3.97
2018-08-30T03:58:04.475Z,3.00
2018-08-30T04:00:31.119Z,3.00
2018-08-30T04:02:57.766Z,3.07
2018-08-30T04:05:24.469Z,3.80
2018-08-30T04:07:51.150Z,4.23
2018-08-30T04:10:17.902Z,3.80
2018-08-30T04:12:45.340Z,3.90
2018-08-30T04:15:12.029Z,5.20
2018-08-30T04:17:39.432Z,5.33
2018-08-30T04:20:06.127Z,3.50
2018-08-30T04:22:33.496Z,3.50
2018-08-30T04:25:00.222Z,11.70
2018-08-30T04:27:27.591Z,7.27
2018-08-30T04:29:54.251Z,3.73
2018-08-30T04:32:20.896Z,3.30
2018-08-30T04:34:47.547Z,2.70
2018-08-30T04:37:14.359Z,4.43
2018-08-30T04:39:41.006Z,2.77
2018-08-30T04:42:07.631Z,2.80
2018-08-30T04:44:34.477Z,2.70
2018-08-30T04:47:01.199Z,2.80
2018-08-30T04:49:27.902Z,2.60
2018-08-30T04:51:54.610Z,2.60
2018-08-30T04:54:21.289Z,2.73
2018-08-30T04:56:47.964Z,2.73
2018-08-30T04:59:14.616Z,2.40
2018-08-30T05:01:41.460Z,2.90
2018-08-30T05:04:08.140Z,2.90
2018-08-30T05:06:34.821Z,7.57
2018-08-30T05:09:01.588Z,2.30
2018-08-30T05:11:28.241Z,2.70
2018-08-30T05:13:56.003Z,2.17
2018-08-30T05:16:22.717Z,2.77
2018-08-30T05:18:49.967Z,2.60
2018-08-30T05:21:17.436Z,4.50
2018-08-30T05:23:44.112Z,8.17
2018-08-30T05:26:11.505Z,5.47
2018-08-30T05:28:38.891Z,11.83
2018-08-30T05:31:06.066Z,2.23
2018-08-30T05:33:33.575Z,2.10
2018-08-30T05:36:00.285Z,2.23
2018-08-30T05:38:26.959Z,1.43
2018-08-30T05:40:54.370Z,2.00
2018-08-30T05:43:21.037Z,3.50
2018-08-30T05:45:48.053Z,4.17
2018-08-30T05:48:14.843Z,6.40
2018-08-30T05:50:41.624Z,9.00
2018-08-30T05:53:08.302Z,11.83
2018-08-30T05:55:35.699Z,4.33
2018-08-30T05:58:02.403Z,2.57
2018-08-30T06:00:29.796Z,3.33
2018-08-30T06:02:56.455Z,6.70
2018-08-30T06:05:23.176Z,7.30
2018-08-30T06:07:49.834Z,9.88
2018-08-30T06:10:16.487Z,3.83
2018-08-30T06:12:43.198Z,3.70
2018-08-30T06:15:09.887Z,1.60
2018-08-30T06:17:37.290Z,1.75
2018-08-30T06:20:04.072Z,1.83
2018-08-30T06:22:31.468Z,2.00
2018-08-30T06:24:58.097Z,1.80
2018-08-30T06:27:24.779Z,1.80
2018-08-30T06:29:51.419Z,1.98
2018-08-30T06:32:18.173Z,1.65
2018-08-30T06:34:44.891Z,1.83
2018-08-30T06:37:11.569Z,1.73
2018-08-30T06:39:39.108Z,1.92
2018-08-30T06:42:05.780Z,1.70
2018-08-30T06:44:32.439Z,1.90
2018-08-30T06:46:59.138Z,2.33
2018-08-30T06:49:25.803Z,2.45
2018-08-30T06:51:52.694Z,2.25
2018-08-30T06:54:19.359Z,2.08
2018-08-30T06:56:46.718Z,2.20
2018-08-30T07:02:11.172Z,1.98
2018-08-30T07:04:37.833Z,1.70
2018-08-30T07:07:04.515Z,1.73
2018-08-30T07:09:31.983Z,2.58
2018-08-30T07:11:58.713Z,1.73
2018-08-30T07:14:26.192Z,1.90
2018-08-30T07:16:52.885Z,1.62
2018-08-30T07:19:20.278Z,2.25
2018-08-30T07:21:46.968Z,1.92
2018-08-30T07:24:13.654Z,1.90
2018-08-30T07:26:40.442Z,1.77
2018-08-30T07:29:07.099Z,2.45
2018-08-30T07:31:33.767Z,1.73
2018-08-30T07:34:00.437Z,1.73
2018-08-30T07:36:27.090Z,1.73
2018-08-30T07:38:53.872Z,1.83
2018-08-30T07:41:20.496Z,2.08
2018-08-30T07:43:47.198Z,1.75
2018-08-30T07:46:14.650Z,1.60
2018-08-30T07:48:41.324Z,1.73
2018-08-30T07:51:08.213Z,1.90
2018-08-30T07:53:34.735Z,1.60
2018-08-30T07:56:01.392Z,1.77
2018-08-30T07:58:28.113Z,1.40
2018-08-30T08:00:54.911Z,1.90
2018-08-30T08:03:21.594Z,1.77
2018-08-30T08:05:48.330Z,2.20
2018-08-30T08:08:15.011Z,1.73
2018-08-30T08:10:41.642Z,1.70
2018-08-30T08:13:08.346Z,1.73
2018-08-30T08:15:36.837Z,2.35
2018-08-30T08:18:03.825Z,1.87
2018-08-30T08:20:30.505Z,1.95
2018-08-30T08:22:57.304Z,1.90
2018-08-30T08:25:24.059Z,1.70
2018-08-30T08:27:50.681Z,1.50
2018-08-30T08:30:17.882Z,1.92
2018-08-30T08:32:44.506Z,1.62
2018-08-30T08:35:11.899Z,2.33
2018-08-30T08:37:38.554Z,2.03
2018-08-30T08:40:05.238Z,1.87
2018-08-30T08:42:32.645Z,1.83
2018-08-30T08:44:59.273Z,1.87
2018-08-30T08:47:25.960Z,2.10
2018-08-30T08:49:52.707Z,2.05
2018-08-30T08:52:19.427Z,1.80
2018-08-30T08:54:46.087Z,1.58
2018-08-30T08:57:13.638Z,1.90
2018-08-30T08:59:40.272Z,2.05
2018-08-30T09:02:06.948Z,1.50
2018-08-30T09:04:33.610Z,2.08
2018-08-30T09:07:00.480Z,1.80
2018-08-30T09:09:27.051Z,1.90
2018-08-30T09:11:54.426Z,1.77
2018-08-30T09:14:21.239Z,1.75
2018-08-30T09:16:47.913Z,2.08
2018-08-30T09:19:14.601Z,2.03
2018-08-30T09:21:41.274Z,1.73
2018-08-30T09:24:07.925Z,1.85
2018-08-30T09:26:34.570Z,2.12
2018-08-30T09:29:01.261Z,1.80
2018-08-30T09:31:27.924Z,2.10
2018-08-30T09:33:55.466Z,2.03
2018-08-30T09:36:22.126Z,1.92
2018-08-30T09:38:49.545Z,2.10
2018-08-30T09:41:16.247Z,1.80
2018-08-30T09:43:42.958Z,2.10
2018-08-30T09:46:10.377Z,2.00
2018-08-30T09:48:37.036Z,2.00
2018-08-30T09:51:03.677Z,2.10
2018-08-30T09:53:31.148Z,2.00
2018-08-30T09:55:58.530Z,2.20
2018-08-30T09:58:25.168Z,2.12
2018-08-30T10:00:51.885Z,2.20
2018-08-30T10:03:19.274Z,2.28
2018-08-30T10:05:46.028Z,1.90
2018-08-30T10:08:12.679Z,2.10
2018-08-30T10:10:39.313Z,1.80
2018-08-30T10:13:06.006Z,2.10
2018-08-30T10:15:32.634Z,2.20
2018-08-30T10:17:59.416Z,5.70
2018-08-30T10:20:26.836Z,2.08
2018-08-30T10:22:53.502Z,2.45
2018-08-30T10:25:20.195Z,2.25
2018-08-30T10:27:47.617Z,2.20
2018-08-30T10:30:14.386Z,1.87
2018-08-30T10:32:41.032Z,2.20
2018-08-30T10:35:07.686Z,2.17
2018-08-30T10:37:34.340Z,2.00
2018-08-30T10:40:01.151Z,2.00
2018-08-30T10:42:28.608Z,2.08
2018-08-30T10:44:56.044Z,2.60
2018-08-30T10:47:22.719Z,2.28
2018-08-30T10:49:49.441Z,2.17
2018-08-30T10:52:16.119Z,2.00
2018-08-30T10:54:42.913Z,2.20
2018-08-30T10:57:09.549Z,2.20
2018-08-30T10:59:36.255Z,2.15
2018-08-30T11:02:02.931Z,2.20
2018-08-30T11:04:30.323Z,2.25
2018-08-30T11:06:57.088Z,2.00
2018-08-30T11:09:23.749Z,2.10
2018-08-30T11:11:50.405Z,2.03
2018-08-30T11:14:17.110Z,1.98
2018-08-30T11:16:43.767Z,2.10
2018-08-30T11:19:10.383Z,2.50
2018-08-30T11:21:37.095Z,2.28
2018-08-30T11:24:03.930Z,2.00
2018-08-30T11:26:30.612Z,1.90
2018-08-30T11:28:58.014Z,2.50
2018-08-30T11:31:25.513Z,2.08
2018-08-30T11:33:52.228Z,2.20
2018-08-30T11:36:18.888Z,2.00
2018-08-30T11:38:45.754Z,2.20
2018-08-30T11:41:12.411Z,1.67
2018-08-30T11:43:39.894Z,2.30
2018-08-30T11:46:07.274Z,1.98
2018-08-30T11:48:33.935Z,2.03
2018-08-30T11:51:00.629Z,2.12
2018-08-30T11:53:27.316Z,1.83
2018-08-30T11:55:54.005Z,2.37
2018-08-30T11:58:21.610Z,1.92
2018-08-30T12:00:48.352Z,2.10
2018-08-30T12:03:15.063Z,2.10
2018-08-30T12:05:41.826Z,2.08
2018-08-30T12:08:08.538Z,1.87
2018-08-30T12:10:35.994Z,2.03
2018-08-30T12:13:03.426Z,2.12
2018-08-30T12:15:30.055Z,2.28
2018-08-30T12:17:56.906Z,2.10
2018-08-30T12:20:24.345Z,1.95
2018-08-30T12:22:51.884Z,2.00
2018-08-30T12:25:18.681Z,2.20
2018-08-30T12:27:45.349Z,2.12
2018-08-30T12:30:12.019Z,2.12
2018-08-30T12:32:38.898Z,2.35
2018-08-30T12:35:05.634Z,2.17
2018-08-30T12:37:32.246Z,2.28
2018-08-30T12:39:59.008Z,2.20
2018-08-30T12:42:25.688Z,2.03
2018-08-30T12:44:53.189Z,1.83
2018-08-30T12:47:19.912Z,2.75
2018-08-30T12:49:46.582Z,2.00
2018-08-30T12:52:14.233Z,2.45
2018-08-30T12:54:40.878Z,2.08
2018-08-30T12:57:07.602Z,2.28
2018-08-30T12:59:34.338Z,6.45
2018-08-30T13:02:01.963Z,2.03
2018-08-30T13:04:28.744Z,2.03
2018-08-30T13:06:56.108Z,3.33
2018-08-30T13:09:23.699Z,2.20
2018-08-30T13:11:50.292Z,2.03
2018-08-30T13:14:17.807Z,2.12
2018-08-30T13:16:45.090Z,2.20
2018-08-30T13:19:11.973Z,2.20
2018-08-30T13:21:38.733Z,1.95
2018-08-30T13:24:05.512Z,1.92
2018-08-30T13:26:32.125Z,2.12
2018-08-30T13:28:59.015Z,2.05
2018-08-30T13:31:25.719Z,2.28
2018-08-30T13:33:52.504Z,2.17
2018-08-30T13:36:19.206Z,2.05
2018-08-30T13:38:45.948Z,2.30
2018-08-30T13:41:13.147Z,2.00
2018-08-30T13:43:39.411Z,1.85
2018-08-30T13:46:06.081Z,1.90
2018-08-30T13:48:32.814Z,2.25
2018-08-30T13:51:00.289Z,1.83
2018-08-30T13:53:27.758Z,1.85
2018-08-30T13:55:55.302Z,2.37
2018-08-30T13:58:22.212Z,2.75
2018-08-30T14:00:49.011Z,2.08
2018-08-30T14:03:15.336Z,2.37
2018-08-30T14:05:42.070Z,2.17
2018-08-30T14:08:08.692Z,2.47
2018-08-30T14:10:36.311Z,1.90
2018-08-30T14:13:03.031Z,1.80
2018-08-30T14:15:29.832Z,2.03
2018-08-30T14:17:56.135Z,2.15
2018-08-30T14:20:22.791Z,2.00
2018-08-30T14:22:49.500Z,1.83
2018-08-30T14:25:16.150Z,1.90
2018-08-30T14:27:42.773Z,2.05
2018-08-30T14:30:09.426Z,2.03
2018-08-30T14:32:36.293Z,2.12
2018-08-30T14:35:03.011Z,2.55
2018-08-30T14:37:29.662Z,2.17
2018-08-30T14:39:56.382Z,2.45
2018-08-30T14:42:23.022Z,2.00
2018-08-30T14:44:49.664Z,2.05
2018-08-30T14:47:16.523Z,2.03
2018-08-30T14:49:43.012Z,1.85
2018-08-30T14:52:10.461Z,1.85
2018-08-30T14:54:37.917Z,2.00
2018-08-30T14:57:05.350Z,1.87
2018-08-30T14:59:32.003Z,2.05
2018-08-30T15:01:58.780Z,2.85
2018-08-30T15:04:25.417Z,2.25
2018-08-30T15:06:52.094Z,2.22
2018-08-30T15:09:18.843Z,2.30
2018-08-30T15:11:45.511Z,2.00
2018-08-30T15:14:12.235Z,2.22
2018-08-30T15:16:39.805Z,1.90
2018-08-30T15:19:06.374Z,1.75
2018-08-30T15:21:33.026Z,2.15
2018-08-30T15:23:59.701Z,2.00
2018-08-30T15:26:26.520Z,2.20
2018-08-30T15:28:54.047Z,1.98
2018-08-30T15:31:20.632Z,2.00
2018-08-30T15:33:47.326Z,2.10
2018-08-30T15:36:14.717Z,2.10
2018-08-30T15:38:42.130Z,1.95
2018-08-30T15:41:08.820Z,2.10
2018-08-30T15:43:35.470Z,2.30
2018-08-30T15:46:02.150Z,2.05
2018-08-30T15:48:28.853Z,2.00
2018-08-30T15:50:55.537Z,2.00
2018-08-30T15:53:22.280Z,2.22
2018-08-30T15:55:48.949Z,2.35
2018-08-30T15:58:15.754Z,2.37
2018-08-30T16:00:42.442Z,3.40
2018-08-30T16:03:09.109Z,2.08
2018-08-30T16:05:36.653Z,2.28
2018-08-30T16:08:03.328Z,2.37
2018-08-30T16:10:29.956Z,2.40
2018-08-30T16:12:56.674Z,2.37
2018-08-30T16:15:23.349Z,2.35
2018-08-30T16:17:50.021Z,2.53
2018-08-30T16:20:16.728Z,2.20
2018-08-30T16:22:43.447Z,2.22
2018-08-30T16:25:10.124Z,2.20
2018-08-30T16:27:36.839Z,2.00
2018-08-30T16:30:03.581Z,2.40
2018-08-30T16:32:30.395Z,2.20
2018-08-30T16:34:57.806Z,2.15
2018-08-30T16:37:24.468Z,3.30
2018-08-30T16:39:51.312Z,2.85
2018-08-30T16:42:18.016Z,2.25
2018-08-30T16:44:44.711Z,2.15
2018-08-30T16:47:12.182Z,2.03
2018-08-30T16:49:38.793Z,2.50
2018-08-30T16:52:05.536Z,2.53
2018-08-30T16:54:32.924Z,2.17
2018-08-30T16:56:59.572Z,2.45
2018-08-30T16:59:26.296Z,2.47
2018-08-30T17:01:53.079Z,2.55
2018-08-30T17:04:19.734Z,2.03
2018-08-30T17:06:46.460Z,2.35
2018-08-30T17:09:28.162Z,2.15
2018-08-30T17:11:56.543Z,2.60
2018-08-30T17:14:23.186Z,2.20
2018-08-30T17:16:51.000Z,2.35
2018-08-30T17:19:18.743Z,2.47
2018-08-30T17:21:45.438Z,2.50
2018-08-30T17:24:12.169Z,2.47
2018-08-30T17:26:38.844Z,2.65
2018-08-30T17:29:05.552Z,2.83
2018-08-30T17:31:32.249Z,3.12
2018-08-30T17:33:59.648Z,2.12
2018-08-30T17:36:26.288Z,2.58
2018-08-30T17:38:53.024Z,2.53
2018-08-30T17:41:19.709Z,2.40
2018-08-30T17:43:47.103Z,2.15
2018-08-30T17:46:13.853Z,2.67
2018-08-30T17:48:40.491Z,2.20
2018-08-30T17:51:07.208Z,2.90
2018-08-30T17:53:33.884Z,2.37
2018-08-30T17:56:00.636Z,2.20
2018-08-30T17:58:27.353Z,3.87
2018-08-30T18:00:54.104Z,2.75
2018-08-30T18:03:20.812Z,2.50
2018-08-30T18:05:47.472Z,3.70
2018-08-30T18:08:14.152Z,2.73
2018-08-30T18:10:41.794Z,2.45
2018-08-30T18:13:08.856Z,3.90
2018-08-30T18:15:35.628Z,2.50
2018-08-30T18:18:02.501Z,2.87
2018-08-30T18:20:29.180Z,2.77
2018-08-30T18:22:55.803Z,2.60
2018-08-30T18:25:22.531Z,4.27
2018-08-30T18:27:49.214Z,2.67
2018-08-30T18:30:16.700Z,2.80
2018-08-30T18:32:43.375Z,2.80
2018-08-30T18:35:10.165Z,2.53
2018-08-30T18:37:36.792Z,3.20
2018-08-30T18:40:04.230Z,2.90
2018-08-30T18:42:30.942Z,3.23
2018-08-30T18:44:57.628Z,2.40
2018-08-30T18:47:24.308Z,2.43
2018-08-30T18:49:50.994Z,2.03
2018-08-30T18:52:17.677Z,2.60
2018-08-30T18:54:44.499Z,2.50
2018-08-30T18:57:11.903Z,2.57
2018-08-30T18:59:38.573Z,2.30
2018-08-30T19:02:06.140Z,2.30
2018-08-30T19:04:33.560Z,2.70
2018-08-30T19:07:00.212Z,3.40
2018-08-30T19:09:26.951Z,2.47
2018-08-30T19:11:53.596Z,2.97
2018-08-30T19:14:20.236Z,4.70
2018-08-30T19:17:05.611Z,2.53
2018-08-30T19:19:32.361Z,4.40
2018-08-30T19:21:59.028Z,2.93
2018-08-30T19:24:25.682Z,2.90
2018-08-30T19:26:52.455Z,2.83
2018-08-30T19:29:19.101Z,3.53
2018-08-30T19:31:45.901Z,2.30
2018-08-30T19:34:12.658Z,2.80
2018-08-30T19:36:39.272Z,2.80
2018-08-30T19:39:05.994Z,2.23
2018-08-30T19:41:32.688Z,2.83
2018-08-30T19:43:59.333Z,2.53
2018-08-30T19:46:26.028Z,2.73
2018-08-30T19:48:52.736Z,2.37
2018-08-30T19:51:19.392Z,2.23
2018-08-30T19:53:46.171Z,2.63
2018-08-30T19:56:12.992Z,2.40
2018-08-30T19:58:39.718Z,2.33
2018-08-30T20:01:06.525Z,2.43
2018-08-30T20:03:33.427Z,2.50
2018-08-30T20:06:00.143Z,2.37
2018-08-30T20:08:26.810Z,2.20
2018-08-30T20:10:53.459Z,2.60
2018-08-30T20:13:20.119Z,2.30
2018-08-30T20:15:46.987Z,2.70
2018-08-30T20:18:13.668Z,2.40
2018-08-30T20:20:40.334Z,2.50
2018-08-30T20:23:07.194Z,2.33
2018-08-30T20:25:33.878Z,2.50
2018-08-30T20:28:00.590Z,2.67
2018-08-30T20:30:27.354Z,3.53
2018-08-30T20:32:54.070Z,6.93
2018-08-30T20:35:21.666Z,2.60
2018-08-30T20:37:48.387Z,2.67
2018-08-30T20:40:15.053Z,4.37
2018-08-30T20:42:41.763Z,3.20
2018-08-30T20:45:08.580Z,2.50
2018-08-30T20:47:35.252Z,2.50
2018-08-30T20:50:01.940Z,2.60
2018-08-30T20:52:28.730Z,2.20
2018-08-30T20:54:55.658Z,2.43
2018-08-30T20:57:22.587Z,2.40
2018-08-30T20:59:49.411Z,2.57
2018-08-30T21:02:18.190Z,2.67
2018-08-30T21:04:45.945Z,2.87
2018-08-30T21:07:12.584Z,2.27
2018-08-30T21:09:39.258Z,2.30
2018-08-30T21:12:06.009Z,2.77
2018-08-30T21:14:32.679Z,2.77
2018-08-30T21:16:59.365Z,2.60
2018-08-30T21:19:26.161Z,2.60
2018-08-30T21:21:52.805Z,2.37
2018-08-30T21:24:19.682Z,2.20
2018-08-30T21:26:46.320Z,2.20
2018-08-30T21:29:12.996Z,2.20
2018-08-30T21:31:40.397Z,2.60
2018-08-30T21:34:07.235Z,3.07
2018-08-30T21:36:34.014Z,2.20
2018-08-30T21:39:00.706Z,2.60
2018-08-30T21:41:27.350Z,2.57
2018-08-30T21:43:54.170Z,2.77
2018-08-30T21:46:20.891Z,2.00
2018-08-30T21:48:47.600Z,2.20
2018-08-30T21:51:14.341Z,1.83
2018-08-30T21:53:41.767Z,2.53
2018-08-30T21:56:08.385Z,2.47
2018-08-30T21:58:35.077Z,2.57
2018-08-30T22:01:02.497Z,2.70
2018-08-30T22:03:29.205Z,2.40
2018-08-30T22:05:56.618Z,2.50
2018-08-30T22:08:23.497Z,2.70
2018-08-30T22:10:50.235Z,2.10
2018-08-30T22:13:17.707Z,2.20
2018-08-30T22:15:44.444Z,3.33
2018-08-30T22:18:11.822Z,2.20
2018-08-30T22:20:38.477Z,2.37
2018-08-30T22:23:05.196Z,2.70
2018-08-30T22:25:31.887Z,2.30
2018-08-30T22:27:58.621Z,2.10
2018-08-30T22:30:25.372Z,2.30
2018-08-30T22:32:52.155Z,2.50
2018-08-30T22:35:18.806Z,2.40
2018-08-30T22:37:45.483Z,1.90
2018-08-30T22:40:12.272Z,2.40
2018-08-30T22:42:39.671Z,2.30
2018-08-30T22:45:06.304Z,2.53
2018-08-30T22:47:33.837Z,4.37
2018-08-30T22:50:00.481Z,2.37
2018-08-30T22:52:27.153Z,2.60
2018-08-30T22:54:54.605Z,2.40
2018-08-30T22:57:21.239Z,2.40
2018-08-30T22:59:47.985Z,2.30
2018-08-30T23:02:14.663Z,2.37
2018-08-30T23:04:42.065Z,2.27
2018-08-30T23:07:08.791Z,2.13
2018-08-30T23:09:35.519Z,2.30
2018-08-30T23:12:02.214Z,3.17
2018-08-30T23:14:29.157Z,2.43
2018-08-30T23:16:55.791Z,2.30
2018-08-30T23:19:23.256Z,2.13
2018-08-30T23:21:50.175Z,2.50
2018-08-30T23:24:16.876Z,2.27
2018-08-30T23:26:43.568Z,2.20
2018-08-30T23:29:10.256Z,2.00
2018-08-30T23:31:36.965Z,3.83
2018-08-30T23:34:03.683Z,2.07
2018-08-30T23:36:30.336Z,2.20
2018-08-30T23:38:56.977Z,2.60
2018-08-30T23:41:24.430Z,2.10
2018-08-30T23:43:51.058Z,2.00
2018-08-30T23:46:18.509Z,2.50
2018-08-30T23:48:45.182Z,2.07
2018-08-30T23:51:12.605Z,2.00
2018-08-30T23:53:40.058Z,3.17
2018-08-30T23:56:06.787Z,2.30
2018-08-30T23:58:45.599Z,2.40
